Time;durP1;ratioP1;P1;durP2;ratioP2;P2;SDS_P1;SDS_P2;PMS_P1;PMS_P2;Temp;Humidity;BMP_temperature;BMP_pressure;BME280_temperature;BME280_humidity;BME280_pressure;Samples;Min_cycle;Max_cycle;Signal;HPM_P1;HPM_P2
2022/11/22 00:01:20;;;;;;;63.13;24.80;;;;;;;5.14;100.00;99036.25;5056182;28;20021;-47
2022/11/22 00:03:45;;;;;;;55.28;23.17;;;;;;;5.15;100.00;99049.84;5055778;28;20460;-47
2022/11/22 00:06:10;;;;;;;60.47;24.17;;;;;;;5.17;100.00;99048.22;5055267;28;20032;-47
2022/11/22 00:08:35;;;;;;;58.20;23.70;;;;;;;5.18;100.00;99044.84;5055846;28;20049;-47
2022/11/22 00:11:01;;;;;;;57.20;21.85;;;;;;;5.19;100.00;99037.19;5056149;28;20021;-44
2022/11/22 00:13:26;;;;;;;57.13;23.02;;;;;;;5.19;100.00;99034.66;5055062;28;20033;-46
2022/11/22 00:16:03;;;;;;;55.78;22.95;;;;;;;5.21;100.00;99039.78;5055555;28;20029;-47
2022/11/22 00:18:29;;;;;;;52.42;21.13;;;;;;;5.20;100.00;99038.94;5055758;28;20490;-47
2022/11/22 00:20:55;;;;;;;50.20;22.58;;;;;;;5.22;100.00;99042.38;5054690;28;20033;-47
2022/11/22 00:23:20;;;;;;;51.50;22.42;;;;;;;5.24;100.00;99039.84;5055734;28;20354;-47
2022/11/22 00:25:46;;;;;;;57.58;22.83;;;;;;;5.25;100.00;99039.91;5055292;28;20488;-47
2022/11/22 00:28:11;;;;;;;49.85;21.45;;;;;;;5.24;100.00;99043.28;5055031;28;20029;-44
2022/11/22 00:30:36;;;;;;;47.63;20.77;;;;;;;5.21;100.00;99038.06;5055317;28;20116;-46
2022/11/22 00:33:02;;;;;;;53.03;21.88;;;;;;;5.21;100.00;99035.53;5055645;28;20025;-46
2022/11/22 00:35:29;;;;;;;61.03;21.63;;;;;;;5.23;100.00;99033.88;5055217;28;20116;-47
2022/11/22 00:37:54;;;;;;;49.75;21.48;;;;;;;5.24;100.00;99030.50;5055327;28;20029;-46
2022/11/22 00:40:20;;;;;;;48.40;21.25;;;;;;;5.30;100.00;99028.91;5054823;28;20104;-47
2022/11/22 00:42:45;;;;;;;49.58;21.80;;;;;;;5.29;100.00;99040.81;5055165;28;20028;-48
2022/11/22 00:45:10;;;;;;;48.40;20.85;;;;;;;5.33;100.00;99044.28;5055387;28;20033;-47
2022/11/22 00:47:36;;;;;;;51.00;21.35;;;;;;;5.35;100.00;99038.38;5054384;28;20029;-47
2022/11/22 00:50:01;;;;;;;55.38;21.15;;;;;;;5.37;100.00;99039.28;5055209;28;20027;-48
2022/11/22 00:52:26;;;;;;;47.50;20.38;;;;;;;5.39;100.00;99044.44;5055462;28;20079;-47
2022/11/22 00:54:52;;;;;;;47.30;20.02;;;;;;;5.35;100.00;99042.66;5053154;28;20056;-47
2022/11/22 00:57:17;;;;;;;49.58;20.17;;;;;;;5.31;100.00;99045.94;5055161;28;20021;-45
2022/11/22 00:59:42;;;;;;;50.63;20.45;;;;;;;5.26;100.00;99039.03;5054837;28;20072;-47
2022/11/22 01:02:08;;;;;;;52.55;18.55;;;;;;;5.20;100.00;99033.81;5054223;28;20028;-46
2022/11/22 01:04:33;;;;;;;47.00;18.63;;;;;;;5.20;100.00;99033.81;5054396;28;20029;-47
2022/11/22 01:06:58;;;;;;;46.08;17.33;;;;;;;5.15;100.00;99034.53;5054850;28;20051;-48
2022/11/22 01:09:23;;;;;;;49.85;17.58;;;;;;;5.11;100.00;99031.94;5054151;28;20472;-46
2022/11/22 01:11:49;;;;;;;43.85;17.00;;;;;;;5.07;100.00;99026.69;5054556;28;20035;-47
2022/11/22 01:14:15;;;;;;;46.35;16.88;;;;;;;5.04;100.00;99041.97;5055061;28;20033;-48
2022/11/22 01:16:41;;;;;;;48.35;17.10;;;;;;;5.03;100.00;99040.22;5053677;28;20021;-47
2022/11/22 01:19:06;;;;;;;49.05;17.38;;;;;;;4.99;100.00;99033.34;5054647;28;20033;-46
2022/11/22 01:21:32;;;;;;;46.00;16.15;;;;;;;4.95;100.00;99032.41;5054537;28;20209;-47
2022/11/22 01:23:57;;;;;;;44.13;16.02;;;;;;;4.94;100.00;99044.31;5053896;28;20078;-47
2022/11/22 01:26:23;;;;;;;43.45;14.63;;;;;;;4.89;100.00;99056.09;5054675;28;20377;-47
2022/11/22 01:28:48;;;;;;;51.90;16.48;;;;;;;4.89;100.00;99048.44;5054261;28;20074;-47
2022/11/22 01:31:13;;;;;;;43.58;15.85;;;;;;;4.86;100.00;99040.69;5053786;28;20029;-47
2022/11/22 01:33:38;;;;;;;49.50;15.02;;;;;;;4.81;100.00;99037.19;5054076;28;20455;-47
2022/11/22 01:36:04;;;;;;;42.50;15.00;;;;;;;4.80;100.00;99042.25;5054271;28;20029;-46
2022/11/22 01:38:29;;;;;;;38.58;14.95;;;;;;;4.76;100.00;99046.41;5053702;28;20044;-47
2022/11/22 01:40:54;;;;;;;52.13;14.02;;;;;;;4.73;100.00;99048.91;5054007;28;20027;-47
2022/11/22 01:43:22;;;;;;;50.10;14.70;;;;;;;4.70;100.00;99051.38;5054285;28;20033;-47
2022/11/22 01:45:51;;;;;;;36.83;13.43;;;;;;;4.71;100.00;99058.19;5053123;28;20072;-47
2022/11/22 01:48:27;;;;;;;53.05;14.25;;;;;;;4.69;100.00;99055.63;5053985;28;20453;-44
2022/11/22 01:50:59;;;;;;;57.35;13.65;;;;;;;4.68;100.00;99056.44;5053245;28;20025;-47
2022/11/22 01:53:29;;;;;;;46.75;12.73;;;;;;;4.68;100.00;99058.13;5053987;28;20571;-47
2022/11/22 01:55:57;;;;;;;40.95;12.15;;;;;;;4.65;100.00;99065.69;5053711;28;20520;-48
2022/11/22 01:58:24;;;;;;;55.83;12.90;;;;;;;4.64;100.00;99071.66;5053095;28;20488;-46
2022/11/22 02:00:51;;;;;;;48.03;11.77;;;;;;;4.65;100.00;99079.34;5053504;28;20033;-47
2022/11/22 02:03:19;;;;;;;43.38;12.18;;;;;;;4.66;100.00;99075.09;5054124;28;20063;-47
2022/11/22 02:05:46;;;;;;;47.53;11.73;;;;;;;4.65;100.00;99073.34;5052895;28;20106;-46
2022/11/22 02:08:36;;;;;;;44.83;10.77;;;;;;;4.66;100.00;99072.53;5054013;28;20029;-47
2022/11/22 02:11:02;;;;;;;49.75;10.57;;;;;;;4.64;100.00;99071.66;5053663;28;20460;-46
2022/11/22 02:13:32;;;;;;;47.33;10.38;;;;;;;4.63;100.00;99075.88;5053092;28;20036;-48
2022/11/22 02:15:59;;;;;;;54.13;10.15;;;;;;;4.57;100.00;99081.69;5053741;28;20082;-47
2022/11/22 02:18:24;;;;;;;46.80;10.13;;;;;;;4.60;100.00;99079.22;5053634;28;20472;-47
2022/11/22 02:20:51;;;;;;;39.72;8.43;;;;;;;4.59;100.00;99086.84;5052643;28;20112;-47
2022/11/22 02:23:23;;;;;;;49.22;10.65;;;;;;;4.60;100.00;99078.38;5053491;28;20102;-46
2022/11/22 02:25:56;;;;;;;49.38;9.60;;;;;;;4.58;100.00;99080.00;5052126;28;20036;-47
2022/11/22 02:28:22;;;;;;;44.10;9.10;;;;;;;4.58;100.00;99080.88;5053642;28;20032;-47
2022/11/22 02:30:47;;;;;;;48.03;9.32;;;;;;;4.56;100.00;99085.06;5052993;28;20031;-47
2022/11/22 02:33:12;;;;;;;48.63;9.93;;;;;;;4.52;100.00;99080.72;5052638;28;20028;-47
2022/11/22 02:35:38;;;;;;;52.45;9.45;;;;;;;4.53;100.00;99085.00;5053040;28;20468;-48
2022/11/22 02:38:15;;;;;;;55.28;8.70;;;;;;;4.56;100.00;99086.78;5053169;28;20082;-47
2022/11/22 02:40:54;;;;;;;43.50;8.35;;;;;;;4.53;100.00;99079.91;5052290;28;20037;-47
2022/11/22 02:43:25;;;;;;;54.38;9.45;;;;;;;4.52;100.00;99085.81;5053261;28;20025;-47
2022/11/22 02:45:50;;;;;;;45.92;8.38;;;;;;;4.50;100.00;99074.72;5052771;28;20123;-46
2022/11/22 02:48:17;;;;;;;61.20;9.02;;;;;;;4.47;100.00;99084.84;5052287;28;20108;-45
2022/11/22 02:50:42;;;;;;;58.97;8.80;;;;;;;4.42;100.00;99087.25;5052580;28;20025;-46
2022/11/22 02:53:09;;;;;;;50.50;8.48;;;;;;;4.44;100.00;99087.28;5053164;28;20100;-48
2022/11/22 02:55:35;;;;;;;51.83;9.10;;;;;;;4.39;100.00;99093.97;5051992;28;20032;-47
2022/11/22 02:58:00;;;;;;;54.60;8.52;;;;;;;4.41;100.00;99094.88;5052835;28;20098;-46
2022/11/22 03:00:25;;;;;;;45.53;8.15;;;;;;;4.39;100.00;99107.59;5053035;28;20037;-46
2022/11/22 03:02:51;;;;;;;57.50;9.30;;;;;;;4.38;100.00;99099.91;5051901;28;20029;-46
2022/11/22 03:05:16;;;;;;;55.70;8.82;;;;;;;4.38;100.00;99102.47;5052666;28;20033;-47
2022/11/22 03:07:42;;;;;;;51.83;9.35;;;;;;;4.37;100.00;99100.72;5052736;28;20029;-47
2022/11/22 03:10:08;;;;;;;49.72;9.07;;;;;;;4.33;100.00;99097.22;5052165;28;20029;-47
2022/11/22 03:12:33;;;;;;;45.17;8.13;;;;;;;4.31;100.00;99105.66;5052446;28;20032;-46
2022/11/22 03:14:58;;;;;;;50.63;8.25;;;;;;;4.28;100.00;99102.19;5052067;28;20116;-47
2022/11/22 03:17:23;;;;;;;63.30;8.25;;;;;;;4.27;100.00;99108.16;5052326;28;20052;-47
2022/11/22 03:19:49;;;;;;;57.75;8.38;;;;;;;4.22;100.00;99117.34;5052361;28;20035;-47
2022/11/22 03:22:14;;;;;;;71.03;9.52;;;;;;;4.20;100.00;99119.00;5052072;28;20589;-47
2022/11/22 03:24:40;;;;;;;49.78;8.68;;;;;;;4.15;100.00;99123.09;5052460;28;20072;-48
2022/11/22 03:27:05;;;;;;;52.75;8.48;;;;;;;4.15;100.00;99118.00;5052816;28;20024;-45
2022/11/22 03:29:30;;;;;;;50.63;9.20;;;;;;;4.08;100.00;99116.09;5051667;28;20392;-43
2022/11/22 03:31:55;;;;;;;53.83;8.70;;;;;;;4.09;100.00;99120.38;5052414;28;20522;-46
2022/11/22 03:34:21;;;;;;;51.70;8.43;;;;;;;4.02;100.00;99121.03;5052497;28;20033;-47
2022/11/22 03:36:46;;;;;;;55.03;8.57;;;;;;;4.03;100.00;99122.75;5051667;28;20039;-47
2022/11/22 03:39:11;;;;;;;53.83;8.50;;;;;;;3.97;100.00;99127.69;5052477;28;20021;-46
2022/11/22 03:41:36;;;;;;;50.72;8.50;;;;;;;3.94;100.00;99129.31;5052410;28;20110;-47
2022/11/22 03:44:02;;;;;;;50.97;8.15;;;;;;;3.92;100.00;99125.84;5051704;28;20025;-46
2022/11/22 03:46:27;;;;;;;57.90;9.07;;;;;;;3.88;100.00;99118.94;5052501;28;20112;-47
2022/11/22 03:48:53;;;;;;;46.70;9.23;;;;;;;3.88;100.00;99128.28;5052146;28;20096;-47
2022/11/22 03:51:18;;;;;;;45.15;7.88;;;;;;;3.84;100.00;99134.97;5051635;28;20021;-48
2022/11/22 03:53:43;;;;;;;55.55;7.97;;;;;;;3.85;100.00;99128.19;5051942;28;20029;-47
2022/11/22 03:56:08;;;;;;;50.33;8.25;;;;;;;3.76;100.00;99133.91;5052604;28;20408;-47
2022/11/22 03:58:34;;;;;;;57.95;9.02;;;;;;;3.75;100.00;99130.47;5051050;28;20071;-47
2022/11/22 04:01:00;;;;;;;54.13;8.98;;;;;;;3.74;100.00;99130.44;5052323;28;20025;-46
2022/11/22 04:03:25;;;;;;;62.20;9.50;;;;;;;3.68;100.00;99131.13;5052249;28;20040;-48
2022/11/22 04:05:50;;;;;;;75.95;9.77;;;;;;;3.66;100.00;99137.84;5051467;28;20455;-45
2022/11/22 04:08:16;;;;;;;61.80;9.43;;;;;;;3.62;100.00;99141.13;5052410;28;20075;-45
2022/11/22 04:10:41;;;;;;;58.33;9.52;;;;;;;3.65;100.00;99132.72;5052183;28;20033;-46
2022/11/22 04:13:06;;;;;;;59.28;9.35;;;;;;;3.55;100.00;99129.91;5051487;28;20459;-47
2022/11/22 04:15:32;;;;;;;47.63;9.50;;;;;;;3.54;100.00;99130.72;5051887;28;20075;-46
2022/11/22 04:17:57;;;;;;;51.08;8.50;;;;;;;3.51;100.00;99132.28;5052144;28;20029;-47
2022/11/22 04:23:16;;;;;;;58.08;9.60;;;;;;;3.46;100.00;99144.91;5052477;28;20128;-47
2022/11/22 04:25:47;;;;;;;48.90;8.85;;;;;;;3.43;100.00;99160.97;5051063;28;20037;-47
2022/11/22 04:28:15;;;;;;;48.85;9.50;;;;;;;3.45;100.00;99158.47;5052180;28;20052;-47
2022/11/22 04:33:24;;;;;;;52.20;9.07;;;;;;;3.40;100.00;99154.91;5055082;28;20388;-47
2022/11/22 04:35:50;;;;;;;64.03;9.02;;;;;;;3.34;100.00;99149.63;5055336;28;20464;-46
2022/11/22 04:38:16;;;;;;;44.38;7.95;;;;;;;3.29;100.00;99146.91;5055573;28;20028;-46
2022/11/22 04:40:42;;;;;;;47.70;8.27;;;;;;;3.28;100.00;99146.06;5054459;28;20071;-46
2022/11/22 04:45:57;;;;;;;48.58;7.95;;;;;;;3.25;100.00;99155.28;5055385;28;20075;-47
2022/11/22 04:48:23;;;;;;;44.78;8.52;;;;;;;3.22;100.00;99156.03;5054627;28;20052;-47
2022/11/22 04:53:32;;;;;;;54.13;9.13;;;;;;;3.23;100.00;99162.03;5054013;28;20036;-47
2022/11/22 04:55:57;;;;;;;45.42;8.82;;;;;;;3.22;100.00;99158.59;5055418;28;20017;-47
2022/11/22 04:58:23;;;;;;;59.88;9.90;;;;;;;3.16;100.00;99160.06;5055085;28;20140;-47
2022/11/22 05:00:48;;;;;;;53.03;8.13;;;;;;;3.15;100.00;99160.88;5054626;28;20032;-47
2022/11/22 05:03:14;;;;;;;51.20;9.13;;;;;;;3.09;100.00;99164.97;5055172;28;20108;-46
2022/11/22 05:05:41;;;;;;;45.53;8.57;;;;;;;3.08;100.00;99168.31;5054731;28;20416;-47
2022/11/22 05:08:08;;;;;;;46.53;7.20;;;;;;;3.10;100.00;99173.47;5054063;28;20025;-46
2022/11/22 05:13:21;;;;;;;43.05;8.30;;;;;;;3.08;100.00;99173.41;5055190;28;20037;-46
2022/11/22 05:15:47;;;;;;;40.58;7.80;;;;;;;3.08;100.00;99170.00;5053725;28;20025;-46
2022/11/22 05:18:12;;;;;;;43.30;7.63;;;;;;;3.07;100.00;99166.63;5054881;28;20051;-46
2022/11/22 05:20:38;;;;;;;44.50;7.70;;;;;;;3.06;100.00;99166.53;5054285;28;20074;-45
2022/11/22 05:25:48;;;;;;;43.05;8.30;;;;;;;2.99;100.00;99167.19;5054246;28;20380;-46
2022/11/22 05:28:13;;;;;;;57.40;9.45;;;;;;;2.98;100.00;99161.19;5054759;28;20025;-46
2022/11/22 05:30:39;;;;;;;52.00;7.47;;;;;;;3.00;100.00;99168.91;5053558;28;20021;-46
2022/11/22 05:33:04;;;;;;;40.97;7.47;;;;;;;2.97;100.00;99164.59;5054509;28;20479;-46
2022/11/22 05:35:30;;;;;;;36.60;7.18;;;;;;;2.91;100.00;99169.47;5054399;28;20036;-46
2022/11/22 05:37:58;;;;;;;43.88;8.02;;;;;;;2.88;100.00;99169.34;5053870;28;20037;-47
2022/11/22 05:40:24;;;;;;;44.35;7.65;;;;;;;2.91;100.00;99166.91;5054069;28;20028;-45
2022/11/22 05:42:49;;;;;;;44.25;7.40;;;;;;;2.90;100.00;99166.03;5053189;28;20021;-45
2022/11/22 05:45:15;;;;;;;38.65;7.75;;;;;;;2.87;100.00;99167.63;5054200;28;20029;-46
2022/11/22 05:47:40;;;;;;;44.60;7.60;;;;;;;2.88;100.00;99169.34;5053945;28;20029;-46
2022/11/22 05:50:06;;;;;;;52.70;7.95;;;;;;;2.87;100.00;99170.19;5053601;28;20024;-46
2022/11/22 05:52:31;;;;;;;39.15;7.85;;;;;;;2.87;100.00;99167.63;5053753;28;20059;-43
2022/11/22 05:54:56;;;;;;;46.55;8.13;;;;;;;2.85;100.00;99161.63;5054240;28;20029;-46
2022/11/22 05:57:22;;;;;;;36.83;7.45;;;;;;;2.80;100.00;99166.53;5053365;28;20029;-43
2022/11/22 05:59:47;;;;;;;39.83;7.53;;;;;;;2.78;100.00;99163.94;5053429;28;20037;-45
2022/11/22 06:02:13;;;;;;;38.97;7.43;;;;;;;2.76;100.00;99165.59;5053854;28;20032;-45
2022/11/22 06:04:38;;;;;;;39.63;7.68;;;;;;;2.75;100.00;99157.88;5052540;28;20025;-42
2022/11/22 06:07:03;;;;;;;46.35;8.48;;;;;;;2.73;100.00;99167.16;5054013;28;20051;-44
2022/11/22 06:09:28;;;;;;;42.47;8.93;;;;;;;2.72;100.00;99167.97;5053654;28;20020;-45
2022/11/22 06:11:53;;;;;;;40.92;8.43;;;;;;;2.76;100.00;99170.69;5052769;28;20052;-47
2022/11/22 06:14:19;;;;;;;43.25;8.18;;;;;;;2.76;100.00;99165.59;5053762;28;20033;-46
2022/11/22 06:16:44;;;;;;;42.95;7.80;;;;;;;2.76;100.00;99168.13;5053324;28;20035;-46
2022/11/22 06:19:09;;;;;;;44.17;9.75;;;;;;;2.75;100.00;99181.66;5052805;28;20488;-46
2022/11/22 06:21:35;;;;;;;58.35;10.82;;;;;;;2.72;100.00;99179.00;5053527;28;20112;-46
2022/11/22 06:24:00;;;;;;;40.05;9.43;;;;;;;2.68;100.00;99171.22;5053612;28;20053;-45
2022/11/22 06:26:25;;;;;;;47.15;10.35;;;;;;;2.67;100.00;99175.44;5052784;28;20090;-44
2022/11/22 06:28:52;;;;;;;49.08;12.05;;;;;;;2.65;100.00;99177.09;5053153;28;20035;-46
2022/11/22 06:31:23;;;;;;;46.27;11.07;;;;;;;2.67;100.00;99179.66;5053421;28;20055;-46
2022/11/22 06:33:49;;;;;;;45.05;9.35;;;;;;;2.66;100.00;99181.38;5052567;28;20024;-45
2022/11/22 06:36:17;;;;;;;44.13;8.98;;;;;;;2.64;100.00;99183.81;5053541;28;20025;-46
2022/11/22 06:38:44;;;;;;;75.43;20.63;;;;;;;2.58;100.00;99173.47;5053106;28;20124;-48
2022/11/22 06:41:12;;;;;;;45.08;11.68;;;;;;;2.58;100.00;99176.00;5052556;28;20035;-46
2022/11/22 06:43:39;;;;;;;56.58;11.13;;;;;;;2.57;100.00;99181.91;5052949;28;20029;-46
2022/11/22 06:46:06;;;;;;;37.20;9.30;;;;;;;2.59;100.00;99189.56;5052209;28;20473;-47
2022/11/22 06:48:36;;;;;;;45.47;11.82;;;;;;;2.60;100.00;99189.63;5052750;28;20538;-42
2022/11/22 06:51:04;;;;;;;46.42;10.20;;;;;;;2.66;100.00;99190.66;5053245;28;20079;-43
2022/11/22 06:53:32;;;;;;;44.38;11.82;;;;;;;2.67;100.00;99190.69;5051637;28;20053;-46
2022/11/22 06:56:08;;;;;;;38.13;12.13;;;;;;;2.71;100.00;99201.84;5052913;28;20496;-47
2022/11/22 06:58:34;;;;;;;31.25;8.48;;;;;;;2.77;100.00;99199.53;5052407;28;20087;-45
2022/11/22 07:01:19;;;;;;;43.63;12.15;;;;;;;2.80;100.00;99202.16;5052090;28;20060;-45
2022/11/22 07:03:47;;;;;;;43.15;10.27;;;;;;;2.82;100.00;99203.09;5052609;28;20024;-45
2022/11/22 07:06:14;;;;;;;37.53;9.00;;;;;;;2.87;100.00;99211.75;5052932;28;20028;-43
2022/11/22 07:08:39;;;;;;;50.45;10.15;;;;;;;2.90;100.00;99219.47;5051784;28;20052;-47
2022/11/22 07:11:10;;;;;;;44.65;9.98;;;;;;;2.93;100.00;99229.78;5052684;28;20480;-45
2022/11/22 07:13:36;;;;;;;48.90;9.50;;;;;;;2.96;100.00;99227.31;5052635;28;20048;-47
2022/11/22 07:16:03;;;;;;;35.80;8.23;;;;;;;3.00;100.00;99223.22;5052058;28;20465;-46
2022/11/22 07:18:29;;;;;;;43.13;9.60;;;;;;;3.03;100.00;99223.28;5052855;28;20025;-46
2022/11/22 07:21:03;;;;;;;42.75;11.38;;;;;;;3.06;100.00;99222.53;5052326;28;20086;-45
2022/11/22 07:23:29;;;;;;;39.38;10.75;;;;;;;3.07;100.00;99220.06;5052496;28;20021;-46
2022/11/22 07:25:54;;;;;;;38.78;13.45;;;;;;;3.09;100.00;99223.50;5051987;28;20102;-46
2022/11/22 07:28:20;;;;;;;43.13;10.80;;;;;;;3.13;100.00;99227.03;5051900;28;20036;-46
2022/11/22 07:30:45;;;;;;;38.92;10.00;;;;;;;3.15;100.00;99230.50;5052526;28;20021;-47
2022/11/22 07:33:10;;;;;;;36.70;10.77;;;;;;;3.16;100.00;99222.03;5052650;28;20603;-45
2022/11/22 07:35:36;;;;;;;37.00;8.77;;;;;;;3.19;100.00;99227.25;5051442;28;20025;-42
2022/11/22 07:38:01;;;;;;;55.53;10.38;;;;;;;3.20;100.00;99228.97;5052389;28;20033;-46
2022/11/22 07:40:27;;;;;;;34.53;10.05;;;;;;;3.23;100.00;99228.22;5052622;28;20085;-46
2022/11/22 07:42:52;;;;;;;45.72;9.55;;;;;;;3.24;100.00;99230.81;5051528;28;20057;-46
2022/11/22 07:45:18;;;;;;;43.00;8.50;;;;;;;3.26;100.00;99229.16;5052304;28;20024;-45
2022/11/22 07:47:43;;;;;;;31.58;8.15;;;;;;;3.31;100.00;99223.38;5052151;28;20058;-47
2022/11/22 07:50:09;;;;;;;37.35;9.23;;;;;;;3.33;100.00;99224.25;5051597;28;20108;-46
2022/11/22 07:52:34;;;;;;;39.08;8.77;;;;;;;3.36;100.00;99230.31;5051983;28;20025;-47
2022/11/22 07:54:59;;;;;;;32.47;8.10;;;;;;;3.38;100.00;99222.72;5052262;28;20032;-45
2022/11/22 07:57:25;;;;;;;35.65;10.27;;;;;;;3.40;100.00;99227.06;5051751;28;20058;-45
2022/11/22 07:59:50;;;;;;;38.45;9.52;;;;;;;3.42;100.00;99222.91;5051877;28;20467;-46
2022/11/22 08:02:15;;;;;;;43.67;9.27;;;;;;;3.46;100.00;99221.31;5052341;28;20029;-46
2022/11/22 08:04:41;;;;;;;38.60;9.07;;;;;;;3.49;100.00;99228.19;5053417;28;20112;-46
2022/11/22 08:07:06;;;;;;;41.58;9.85;;;;;;;3.52;100.00;99218.94;5056066;28;20033;-46
2022/11/22 08:09:31;;;;;;;48.47;10.15;;;;;;;3.55;100.00;99231.78;5055624;28;20215;-45
2022/11/22 08:11:57;;;;;;;35.90;9.07;;;;;;;3.59;100.00;99227.63;5055347;28;20051;-47
2022/11/22 08:14:22;;;;;;;42.33;8.55;;;;;;;3.63;100.00;99235.44;5056097;28;20078;-44
2022/11/22 08:16:48;;;;;;;44.60;11.23;;;;;;;3.66;100.00;99231.25;5055823;28;20052;-47
2022/11/22 08:19:16;;;;;;;42.03;9.35;;;;;;;3.70;100.00;99230.53;5055242;28;20029;-44
2022/11/22 08:21:43;;;;;;;33.15;7.85;;;;;;;3.74;100.00;99234.91;5055416;28;20520;-46
2022/11/22 08:24:08;;;;;;;32.70;8.10;;;;;;;3.79;100.00;99235.91;5055540;28;20064;-45
2022/11/22 08:26:34;;;;;;;33.08;8.35;;;;;;;3.85;100.00;99233.56;5054569;28;20064;-47
2022/11/22 08:29:02;;;;;;;28.98;7.75;;;;;;;3.87;100.00;99226.81;5055786;28;20029;-47
2022/11/22 08:31:28;;;;;;;28.70;7.38;;;;;;;3.91;100.00;99238.84;5054752;28;20025;-46
2022/11/22 08:33:53;;;;;;;40.17;7.72;;;;;;;3.94;100.00;99236.38;5055232;28;20036;-46
2022/11/22 08:36:18;;;;;;;29.98;7.32;;;;;;;3.97;100.00;99239.84;5055498;28;20090;-46
2022/11/22 08:38:44;;;;;;;27.92;7.38;;;;;;;3.99;100.00;99248.38;5054246;28;20489;-46
2022/11/22 08:41:09;;;;;;;29.25;7.18;;;;;;;4.01;100.00;99239.13;5055342;28;20112;-46
2022/11/22 08:43:35;;;;;;;30.48;7.60;;;;;;;4.01;100.00;99239.13;5055104;28;20029;-47
2022/11/22 08:46:00;;;;;;;36.22;6.88;;;;;;;4.04;100.00;99241.75;5054643;28;20373;-47
2022/11/22 08:48:27;;;;;;;33.05;6.40;;;;;;;4.08;100.00;99243.56;5055293;28;20071;-45
2022/11/22 08:50:55;;;;;;;38.38;7.20;;;;;;;4.15;100.00;99250.59;5054967;28;20052;-46
2022/11/22 08:53:21;;;;;;;34.15;7.13;;;;;;;4.21;100.00;99247.34;5054432;28;20056;-47
2022/11/22 08:55:46;;;;;;;31.13;6.40;;;;;;;4.25;100.00;99257.69;5055004;28;20112;-46
2022/11/22 08:58:12;;;;;;;33.65;6.60;;;;;;;4.31;100.00;99243.38;5054812;28;20041;-45
2022/11/22 09:00:37;;;;;;;29.52;6.13;;;;;;;4.34;100.00;99243.47;5054057;28;20029;-46
2022/11/22 09:03:02;;;;;;;32.60;6.57;;;;;;;4.39;100.00;99249.56;5054958;28;20070;-46
2022/11/22 09:05:29;;;;;;;26.30;6.38;;;;;;;4.43;100.00;99246.31;5055044;28;20472;-45
2022/11/22 09:07:54;;;;;;;25.05;5.82;;;;;;;4.44;100.00;99254.00;5053899;28;20036;-46
2022/11/22 09:10:20;;;;;;;30.45;6.00;;;;;;;4.48;100.00;99254.94;5054820;28;20033;-46
2022/11/22 09:12:45;;;;;;;28.52;5.72;;;;;;;4.52;100.00;99260.97;5054606;28;20087;-47
2022/11/22 09:15:11;;;;;;;23.60;5.60;;;;;;;4.55;100.00;99259.38;5053496;28;20025;-45
2022/11/22 09:17:37;;;;;;;25.92;5.95;;;;;;;4.57;100.00;99260.31;5054444;28;20021;-47
2022/11/22 09:20:03;;;;;;;32.42;7.25;;;;;;;4.61;100.00;99266.38;5054860;28;20365;-43
2022/11/22 09:22:29;;;;;;;28.58;7.22;;;;;;;4.63;100.00;99269.81;5053531;28;20111;-47
2022/11/22 09:24:54;;;;;;;33.22;7.05;;;;;;;4.66;100.00;99269.03;5054431;28;20048;-46
2022/11/22 09:27:20;;;;;;;27.92;6.00;;;;;;;4.69;100.00;99271.69;5054712;28;20398;-46
2022/11/22 09:29:45;;;;;;;22.90;6.93;;;;;;;4.71;100.00;99264.91;5053818;28;20037;-46
2022/11/22 09:32:10;;;;;;;37.28;6.70;;;;;;;4.78;100.00;99274.47;5054540;28;20078;-44
2022/11/22 09:34:36;;;;;;;36.50;6.25;;;;;;;4.84;100.00;99261.00;5054228;28;20056;-46
2022/11/22 09:37:01;;;;;;;25.15;6.13;;;;;;;4.87;100.00;99264.50;5053618;28;20021;-44
2022/11/22 09:39:26;;;;;;;21.95;6.50;;;;;;;4.91;100.00;99258.66;5054560;28;20372;-46
2022/11/22 09:42:00;;;;;;;23.17;5.78;;;;;;;4.97;100.00;99267.31;5053448;28;20037;-47
2022/11/22 09:44:31;;;;;;;37.22;9.00;;;;;;;5.02;100.00;99263.19;5054266;28;20060;-46
2022/11/22 09:47:07;;;;;;;31.10;10.10;;;;;;;5.06;100.00;99260.78;5054125;28;20490;-46
2022/11/22 09:49:54;;;;;;;30.23;9.20;;;;;;;5.09;100.00;99270.19;5052937;28;20471;-46
2022/11/22 09:52:40;;;;;;;24.57;7.80;;;;;;;5.10;100.00;99261.72;5054280;28;20083;-45
2022/11/22 09:55:31;;;;;;;27.33;8.05;;;;;;;5.13;100.00;99266.91;5054039;28;20032;-45
2022/11/22 09:58:21;;;;;;;35.03;8.40;;;;;;;5.18;100.00;99272.13;5048936;28;20445;-46
2022/11/22 10:00:47;;;;;;;24.52;6.45;;;;;;;5.19;100.00;99258.50;5053812;28;20051;-45
2022/11/22 10:03:21;;;;;;;23.92;7.40;;;;;;;5.22;100.00;99267.13;5053074;28;20388;-45
2022/11/22 10:05:56;;;;;;;21.45;8.40;;;;;;;5.26;100.00;99275.75;5053438;28;20036;-47
2022/11/22 10:08:31;;;;;;;29.38;7.78;;;;;;;5.29;100.00;99273.25;5053765;28;20029;-46
2022/11/22 10:10:57;;;;;;;21.08;6.40;;;;;;;5.28;100.00;99281.75;5053085;28;20117;-46
2022/11/22 10:13:37;;;;;;;21.92;5.32;;;;;;;5.27;100.00;99278.31;5053824;28;20028;-47
2022/11/22 10:16:15;;;;;;;17.75;6.07;;;;;;;5.28;100.00;99266.44;5053875;28;20028;-47
2022/11/22 10:18:55;;;;;;;21.35;6.38;;;;;;;5.27;100.00;99270.66;5052110;28;20029;-46
2022/11/22 10:21:20;;;;;;;26.48;6.32;;;;;;;5.26;100.00;99268.94;5053753;28;20033;-46
2022/11/22 10:23:46;;;;;;;20.73;6.28;;;;;;;5.24;100.00;99265.50;5053334;28;20031;-47
2022/11/22 10:26:20;;;;;;;16.88;5.50;;;;;;;5.24;100.00;99262.06;5052645;28;20033;-44
2022/11/22 10:29:12;;;;;;;18.10;6.40;;;;;;;5.27;100.00;99257.03;5052255;28;20037;-47
2022/11/22 10:31:59;;;;;;;20.98;5.75;;;;;;;5.26;100.00;99262.97;5052474;28;20059;-45
2022/11/22 10:34:40;;;;;;;23.75;5.05;;;;;;;5.27;100.00;99254.50;5053460;28;20033;-47
2022/11/22 10:37:23;;;;;;;20.60;4.72;;;;;;;5.22;100.00;99262.00;5053262;28;20044;-46
2022/11/22 10:39:51;;;;;;;24.98;5.65;;;;;;;5.14;100.00;99253.31;5052405;28;20031;-47
2022/11/22 10:42:28;;;;;;;;;;;;;;;5.20;100.00;99253.47;5053784;28;20017;-47
2022/11/22 10:45:05;;;;;;;26.80;7.07;;;;;;;5.15;100.00;99243.94;5052926;28;19913;-47
2022/11/22 10:47:46;;;;;;;45.63;15.02;;;;;;;5.20;100.00;99250.91;5053168;28;20032;-42
2022/11/22 10:50:19;;;;;;;17.70;6.05;;;;;;;5.29;100.00;99247.72;5053236;28;20021;-46
2022/11/22 10:53:05;;;;;;;36.28;15.18;;;;;;;5.35;100.00;99258.09;5051849;28;20518;-45
2022/11/22 10:55:53;;;;;;;28.73;9.00;;;;;;;5.41;100.00;99248.03;5052971;28;20017;-43
2022/11/22 10:58:56;;;;;;;37.38;18.20;;;;;;;5.52;100.00;99250.81;5052710;28;20057;-46
2022/11/22 11:01:33;;;;;;;32.58;12.30;;;;;;;5.55;100.00;99245.81;5052149;28;20033;-45
2022/11/22 11:04:00;;;;;;;25.48;8.27;;;;;;;5.60;100.00;99238.22;5052902;28;20103;-47
2022/11/22 11:06:33;;;;;;;24.73;8.90;;;;;;;5.62;100.00;99236.59;5051943;28;20086;-47
2022/11/22 11:09:20;;;;;;;16.60;7.25;;;;;;;5.68;100.00;99234.19;5053143;28;20029;-43
2022/11/22 11:11:46;;;;;;;23.85;9.63;;;;;;;5.69;100.00;99229.91;5052628;28;20065;-47
2022/11/22 11:14:25;;;;;;;15.70;6.45;;;;;;;5.73;100.00;99226.59;5051978;28;20118;-47
2022/11/22 11:16:51;;;;;;;17.38;5.32;;;;;;;5.71;100.00;99223.16;5052407;28;20029;-47
2022/11/22 11:19:19;;;;;;;14.07;5.07;;;;;;;5.78;100.00;99212.22;5052592;28;20493;-43
2022/11/22 11:21:52;;;;;;;14.75;4.55;;;;;;;5.76;100.00;99213.91;5051754;28;20118;-47
2022/11/22 11:24:18;;;;;;;24.42;10.45;;;;;;;5.76;100.00;99217.31;5052669;28;20108;-47
2022/11/22 11:26:53;;;;;;;14.32;4.38;;;;;;;5.77;100.00;99206.28;5052294;28;20021;-47
2022/11/22 11:29:18;;;;;;;12.10;3.55;;;;;;;5.77;100.00;99208.81;5051865;28;20032;-46
2022/11/22 11:31:46;;;;;;;13.00;4.13;;;;;;;5.77;100.00;99210.50;5052212;28;20021;-47
2022/11/22 11:34:15;;;;;;;;;;;;;;;5.83;100.00;99205.53;5053014;28;20695;-48
2022/11/22 11:36:41;;;;;;;10.82;4.00;;;;;;;5.81;100.00;99206.31;5052227;28;20279;-47
2022/11/22 11:39:19;;;;;;;12.15;4.35;;;;;;;5.83;100.00;99197.84;5053960;28;20108;-47
2022/11/22 11:41:44;;;;;;;10.20;3.83;;;;;;;5.83;99.41;99200.41;5055483;28;20406;-45
2022/11/22 11:44:33;;;;;;;16.48;4.90;;;;;;;5.89;99.49;99205.66;5056361;28;20104;-45